createdAt,value
2023-04-18T00:01:23.476Z,11.94
2023-04-18T00:03:50.991Z,11.68
2023-04-18T00:06:17.886Z,11.75
2023-04-18T00:08:44.820Z,11.94
2023-04-18T00:11:11.347Z,12.17
2023-04-18T00:13:39.368Z,12.04
2023-04-18T00:16:07.714Z,11.72
2023-04-18T00:18:34.520Z,11.72
2023-04-18T00:21:01.995Z,11.05
2023-04-18T00:23:30.167Z,11.34
2023-04-18T00:25:56.748Z,11.09
2023-04-18T00:28:23.229Z,11.37
2023-04-18T00:30:49.804Z,11.24
2023-04-18T00:33:16.660Z,11.37
2023-04-18T00:35:43.213Z,11.27
2023-04-18T00:38:10.171Z,11.11
2023-04-18T00:40:37.737Z,10.89
2023-04-18T00:43:04.304Z,11.12
2023-04-18T00:45:31.018Z,11.15
2023-04-18T00:47:57.562Z,11.43
2023-04-18T00:50:24.434Z,11.69
2023-04-18T00:52:51.988Z,11.15
2023-04-18T00:55:18.936Z,11.01
2023-04-18T00:57:45.943Z,11.30
2023-04-18T01:00:13.050Z,11.00
2023-04-18T01:02:39.988Z,10.92
2023-04-18T01:05:07.920Z,11.15
2023-04-18T01:07:37.265Z,10.89
2023-04-18T01:10:04.341Z,11.09
2023-04-18T01:12:31.308Z,11.10
2023-04-18T01:14:58.780Z,11.29
2023-04-18T01:17:28.259Z,11.15
2023-04-18T01:19:54.870Z,11.13
2023-04-18T01:22:21.358Z,11.59
2023-04-18T01:24:47.835Z,11.38
2023-04-18T01:27:14.465Z,11.24
2023-04-18T01:29:41.031Z,11.43
2023-04-18T01:32:07.610Z,11.51
2023-04-18T01:34:34.174Z,11.29
2023-04-18T01:37:00.780Z,11.23
2023-04-18T01:39:27.993Z,11.21
2023-04-18T01:41:54.476Z,11.05
2023-04-18T01:44:20.943Z,11.33
2023-04-18T01:46:47.483Z,11.52
2023-04-18T01:49:14.043Z,11.51
2023-04-18T01:51:42.121Z,10.98
2023-04-18T01:54:08.666Z,11.24
2023-04-18T01:56:35.239Z,11.02
2023-04-18T01:59:01.838Z,11.00
2023-04-18T02:01:28.364Z,10.84
2023-04-18T02:03:55.010Z,10.90
2023-04-18T02:06:21.693Z,10.85
2023-04-18T02:08:48.170Z,10.94
2023-04-18T02:11:14.698Z,10.55
2023-04-18T02:13:41.250Z,10.58
2023-04-18T02:16:12.724Z,10.38
2023-04-18T02:18:39.394Z,10.33
2023-04-18T02:21:06.485Z,10.47
2023-04-18T02:23:32.952Z,10.90
2023-04-18T02:25:59.497Z,10.86
2023-04-18T02:28:25.962Z,10.63
2023-04-18T02:30:52.940Z,10.04
2023-04-18T02:33:19.607Z,10.30
2023-04-18T02:35:46.227Z,10.49
2023-04-18T02:38:13.771Z,10.29
2023-04-18T02:40:40.423Z,10.31
2023-04-18T02:43:06.886Z,10.23
2023-04-18T02:45:33.584Z,10.27
2023-04-18T02:48:00.264Z,10.07
2023-04-18T02:50:27.203Z,10.05
2023-04-18T02:52:53.714Z,10.20
2023-04-18T02:55:21.871Z,10.31
2023-04-18T02:57:48.383Z,10.01
2023-04-18T03:00:15.051Z,10.12
2023-04-18T03:02:41.900Z,9.91
2023-04-18T03:05:08.710Z,10.26
2023-04-18T03:07:35.381Z,9.94
2023-04-18T03:10:01.986Z,10.44
2023-04-18T03:12:28.519Z,10.19
2023-04-18T03:14:55.011Z,10.23
2023-04-18T03:17:21.517Z,9.92
2023-04-18T03:19:48.448Z,10.45
2023-04-18T03:22:15.693Z,10.10
2023-04-18T03:24:42.262Z,10.46
2023-04-18T03:27:08.772Z,10.15
2023-04-18T03:29:35.528Z,10.55
2023-04-18T03:32:02.042Z,10.46
2023-04-18T03:34:29.262Z,10.67
2023-04-18T03:36:56.007Z,10.38
2023-04-18T03:39:22.515Z,10.29
2023-04-18T03:41:49.785Z,10.45
2023-04-18T03:44:16.610Z,10.37
2023-04-18T03:46:43.510Z,10.40
2023-04-18T03:49:10.308Z,10.46
2023-04-18T03:51:43.508Z,10.68
2023-04-18T03:54:10.111Z,10.25
2023-04-18T03:56:36.714Z,10.42
2023-04-18T03:59:03.173Z,10.91
2023-04-18T04:01:29.797Z,10.74
2023-04-18T04:03:56.736Z,10.72
2023-04-18T04:06:23.389Z,10.84
2023-04-18T04:08:50.224Z,10.42
2023-04-18T04:11:17.595Z,10.88
2023-04-18T04:13:44.155Z,10.67
2023-04-18T04:16:10.685Z,10.97
2023-04-18T04:18:37.191Z,10.59
2023-04-18T04:21:03.920Z,10.64
2023-04-18T04:23:30.484Z,10.73
2023-04-18T04:25:58.617Z,10.93
2023-04-18T04:28:26.172Z,10.70
2023-04-18T04:30:53.141Z,10.85
2023-04-18T04:33:20.204Z,10.83
2023-04-18T04:35:47.510Z,10.75
2023-04-18T04:38:19.957Z,10.58
2023-04-18T04:40:46.432Z,10.86
2023-04-18T04:43:15.602Z,10.81
2023-04-18T04:45:43.527Z,11.07
2023-04-18T04:48:11.094Z,11.37
2023-04-18T04:50:38.733Z,10.96
2023-04-18T04:53:06.390Z,11.20
2023-04-18T04:55:33.524Z,11.00
2023-04-18T04:58:00.415Z,10.90
2023-04-18T05:00:27.108Z,11.06
2023-04-18T05:02:55.666Z,11.45
2023-04-18T05:05:22.273Z,11.46
2023-04-18T05:07:48.764Z,11.16
2023-04-18T05:10:15.466Z,11.06
2023-04-18T05:12:41.984Z,11.18
2023-04-18T05:15:08.769Z,10.98
2023-04-18T05:17:35.480Z,11.25
2023-04-18T05:20:02.116Z,11.46
2023-04-18T05:22:28.684Z,11.25
2023-04-18T05:24:55.261Z,11.75
2023-04-18T05:27:21.830Z,11.44
2023-04-18T05:29:50.185Z,11.07
2023-04-18T05:32:16.836Z,11.07
2023-04-18T05:34:43.362Z,10.19
2023-04-18T05:37:09.988Z,10.84
2023-04-18T05:39:36.610Z,10.81
2023-04-18T05:42:03.333Z,11.42
2023-04-18T05:44:30.159Z,11.24
2023-04-18T05:46:56.661Z,10.92
2023-04-18T05:49:23.671Z,11.45
2023-04-18T05:51:50.569Z,10.67
2023-04-18T05:54:17.210Z,10.94
2023-04-18T05:56:43.917Z,11.17
2023-04-18T05:59:10.786Z,11.26
2023-04-18T06:01:37.253Z,11.41
2023-04-18T06:04:04.003Z,11.64
2023-04-18T06:06:31.466Z,11.45
2023-04-18T06:08:58.010Z,11.51
2023-04-18T06:11:24.504Z,11.35
2023-04-18T06:13:51.206Z,10.99
2023-04-18T06:16:18.074Z,11.09
2023-04-18T06:18:44.619Z,11.41
2023-04-18T06:21:11.169Z,11.55
2023-04-18T06:23:38.504Z,11.34
2023-04-18T06:26:06.054Z,11.62
2023-04-18T06:28:32.741Z,11.19
2023-04-18T06:30:59.282Z,11.22
2023-04-18T06:33:26.020Z,10.90
2023-04-18T06:35:52.779Z,11.51
2023-04-18T06:38:19.281Z,11.76
2023-04-18T06:40:45.735Z,11.12
2023-04-18T06:43:12.177Z,10.82
2023-04-18T06:45:38.986Z,10.95
2023-04-18T06:48:06.110Z,11.68
2023-04-18T06:50:32.665Z,11.16
2023-04-18T06:52:59.134Z,11.20
2023-04-18T06:55:25.663Z,10.80
2023-04-18T06:57:52.295Z,11.04
2023-04-18T07:00:19.047Z,11.00
2023-04-18T07:02:45.627Z,11.25
2023-04-18T07:05:12.455Z,11.73
2023-04-18T07:07:39.098Z,11.84
2023-04-18T07:10:06.751Z,11.50
2023-04-18T07:12:33.822Z,11.20
2023-04-18T07:15:00.582Z,11.67
2023-04-18T07:17:27.118Z,11.79
2023-04-18T07:19:53.601Z,11.31
2023-04-18T07:22:20.203Z,11.19
2023-04-18T07:24:46.776Z,11.64
2023-04-18T07:27:13.596Z,11.96
2023-04-18T07:29:40.111Z,12.45
2023-04-18T07:32:08.387Z,12.32
2023-04-18T07:34:36.648Z,12.17
2023-04-18T07:37:03.335Z,11.91
2023-04-18T07:39:31.832Z,11.77
2023-04-18T07:41:58.819Z,12.26
2023-04-18T07:44:25.540Z,12.22
2023-04-18T07:46:52.372Z,11.21
2023-04-18T07:49:19.053Z,11.68
2023-04-18T07:51:45.553Z,12.20
2023-04-18T07:54:12.050Z,12.15
2023-04-18T07:56:38.821Z,11.81
2023-04-18T07:59:05.370Z,12.72
2023-04-18T08:01:31.930Z,13.07
2023-04-18T08:04:01.811Z,12.36
2023-04-18T08:06:29.054Z,12.47
2023-04-18T08:08:55.683Z,12.00
2023-04-18T08:11:23.291Z,11.99
2023-04-18T08:13:49.768Z,11.31
2023-04-18T08:16:17.488Z,11.61
2023-04-18T08:18:44.359Z,11.50
2023-04-18T08:21:10.974Z,11.40
2023-04-18T08:23:37.645Z,11.06
2023-04-18T08:26:04.266Z,11.71
2023-04-18T08:28:30.749Z,11.64
2023-04-18T08:30:57.476Z,11.45
2023-04-18T08:33:24.519Z,11.89
2023-04-18T08:35:51.498Z,11.85
2023-04-18T08:38:18.458Z,12.23
2023-04-18T08:40:45.356Z,12.31
2023-04-18T08:43:14.814Z,11.69
2023-04-18T08:45:45.162Z,11.91
2023-04-18T08:48:16.260Z,12.50
2023-04-18T08:50:43.302Z,12.91
2023-04-18T08:53:10.253Z,12.84
2023-04-18T08:55:37.376Z,11.98
2023-04-18T08:58:07.242Z,12.63
2023-04-18T09:00:34.117Z,12.17
2023-04-18T09:03:03.679Z,12.25
2023-04-18T09:05:30.570Z,11.91
2023-04-18T09:07:57.134Z,12.16
2023-04-18T09:10:31.042Z,12.24
2023-04-18T09:12:59.251Z,12.55
2023-04-18T09:15:27.278Z,12.48
2023-04-18T09:17:56.238Z,12.10
2023-04-18T09:20:34.609Z,12.27
2023-04-18T09:23:14.672Z,12.61
2023-04-18T09:25:44.139Z,12.37
2023-04-18T09:28:28.737Z,12.92
2023-04-18T09:31:14.497Z,12.57
2023-04-18T09:33:52.759Z,12.69
2023-04-18T09:36:22.975Z,12.65
2023-04-18T09:38:52.563Z,13.41
2023-04-18T09:41:22.465Z,13.27
2023-04-18T09:43:49.429Z,13.18
2023-04-18T09:46:17.563Z,12.85
2023-04-18T09:48:44.261Z,13.56
2023-04-18T09:51:14.721Z,13.64
2023-04-18T09:53:44.531Z,14.26
2023-04-18T09:56:27.645Z,13.89
2023-04-18T09:59:09.169Z,13.93
2023-04-18T10:01:36.128Z,14.12
2023-04-18T10:04:04.395Z,14.10
2023-04-18T10:06:33.303Z,14.30
2023-04-18T10:09:00.720Z,14.88
2023-04-18T10:11:27.430Z,14.20
2023-04-18T10:13:56.920Z,13.23
2023-04-18T10:16:24.039Z,13.60
2023-04-18T10:18:53.414Z,13.66
2023-04-18T10:21:21.309Z,13.85
2023-04-18T10:23:49.090Z,13.67
2023-04-18T10:26:16.041Z,14.46
2023-04-18T10:28:49.487Z,14.30
2023-04-18T10:31:16.853Z,15.17
2023-04-18T10:34:03.104Z,15.14
2023-04-18T10:36:30.301Z,15.15
2023-04-18T10:39:05.792Z,15.24
2023-04-18T10:41:33.647Z,15.80
2023-04-18T10:44:15.673Z,15.31
2023-04-18T10:47:08.795Z,15.36
2023-04-18T10:49:38.268Z,15.87
2023-04-18T10:52:08.480Z,16.49
2023-04-18T10:54:51.766Z,16.10
2023-04-18T10:57:18.333Z,16.47
2023-04-18T10:59:48.843Z,16.85
2023-04-18T11:02:32.269Z,16.95
2023-04-18T11:05:06.966Z,17.28
2023-04-18T11:07:34.008Z,16.13
2023-04-18T11:10:01.863Z,16.94
2023-04-18T11:12:34.838Z,17.33
2023-04-18T11:15:08.092Z,16.11
2023-04-18T11:17:35.811Z,16.30
2023-04-18T11:20:11.277Z,17.00
2023-04-18T11:22:55.381Z,16.57
2023-04-18T11:25:40.528Z,16.90
2023-04-18T11:28:07.427Z,17.46
2023-04-18T11:30:41.398Z,16.94
2023-04-18T11:33:12.013Z,16.36
2023-04-18T11:35:43.593Z,15.87
2023-04-18T11:38:13.272Z,16.56
2023-04-18T11:40:47.418Z,15.56
2023-04-18T11:43:20.789Z,16.40
2023-04-18T11:45:59.961Z,16.42
2023-04-18T11:48:43.438Z,16.32
2023-04-18T11:51:36.140Z,16.31
2023-04-18T11:54:02.731Z,15.42
2023-04-18T11:56:29.488Z,15.42
2023-04-18T11:58:56.278Z,16.01
2023-04-18T12:01:24.720Z,14.98
2023-04-18T12:04:08.096Z,15.46
2023-04-18T12:06:51.926Z,15.18
2023-04-18T12:09:19.327Z,15.44
2023-04-18T12:12:03.159Z,15.02
2023-04-18T12:14:30.352Z,15.15
2023-04-18T12:16:56.843Z,15.21
2023-04-18T12:19:28.052Z,15.37
2023-04-18T12:22:03.051Z,15.82
2023-04-18T12:24:29.940Z,16.42
2023-04-18T12:26:58.089Z,16.33
2023-04-18T12:29:25.705Z,17.25
2023-04-18T12:31:52.405Z,17.70
2023-04-18T12:34:19.035Z,17.99
2023-04-18T12:36:46.681Z,18.24
2023-04-18T12:39:13.315Z,18.34
2023-04-18T12:41:39.828Z,18.44
2023-04-18T12:44:06.730Z,17.90
2023-04-18T12:46:33.392Z,18.03
2023-04-18T12:49:00.302Z,17.73
2023-04-18T12:51:28.226Z,17.77
2023-04-18T12:53:54.935Z,17.42
2023-04-18T12:56:21.500Z,17.80
2023-04-18T12:58:48.081Z,17.90
2023-04-18T13:01:15.186Z,17.60
2023-04-18T13:03:42.091Z,17.35
2023-04-18T13:06:08.934Z,17.92
2023-04-18T13:08:35.398Z,17.99
2023-04-18T13:11:02.065Z,17.90
2023-04-18T13:13:28.752Z,18.48
2023-04-18T13:15:55.470Z,18.19
2023-04-18T13:18:22.000Z,18.10
2023-04-18T13:20:49.650Z,19.07
2023-04-18T13:23:17.640Z,19.15
2023-04-18T13:25:44.157Z,18.54
2023-04-18T13:28:10.685Z,17.83
2023-04-18T13:30:37.402Z,17.87
2023-04-18T13:33:04.205Z,17.59
2023-04-18T13:35:30.711Z,17.77
2023-04-18T13:37:57.189Z,18.47
2023-04-18T13:40:24.141Z,18.77
2023-04-18T13:42:51.443Z,17.74
2023-04-18T13:45:18.661Z,17.23
2023-04-18T13:47:45.294Z,18.62
2023-04-18T13:50:12.067Z,17.47
2023-04-18T13:52:38.552Z,17.99
2023-04-18T13:55:05.555Z,18.14
2023-04-18T13:57:33.218Z,18.19
2023-04-18T13:59:59.736Z,18.39
2023-04-18T14:02:26.736Z,19.12
2023-04-18T14:04:54.782Z,18.38
2023-04-18T14:07:21.447Z,18.50
2023-04-18T14:09:48.176Z,18.98
2023-04-18T14:12:14.725Z,19.10
2023-04-18T14:14:42.018Z,18.54
2023-04-18T14:17:08.576Z,18.45
2023-04-18T14:19:35.526Z,18.52
2023-04-18T14:22:02.025Z,18.22
2023-04-18T14:24:28.480Z,18.07
2023-04-18T14:26:54.940Z,16.92
2023-04-18T14:29:21.421Z,17.61
2023-04-18T14:31:48.032Z,17.35
2023-04-18T14:34:14.624Z,17.13
2023-04-18T14:36:41.380Z,17.18
2023-04-18T14:39:08.271Z,17.47
2023-04-18T14:41:34.847Z,17.91
2023-04-18T14:44:01.511Z,17.99
2023-04-18T14:46:28.394Z,18.50
2023-04-18T14:48:55.049Z,18.40
2023-04-18T14:51:21.597Z,18.19
2023-04-18T14:53:48.299Z,17.96
2023-04-18T14:56:16.210Z,17.24
2023-04-18T14:58:43.797Z,17.13
2023-04-18T15:01:10.406Z,17.35
2023-04-18T15:03:37.030Z,17.35
2023-04-18T15:06:03.846Z,17.72
2023-04-18T15:08:32.841Z,17.64
2023-04-18T15:10:59.501Z,17.75
2023-04-18T15:13:25.985Z,18.12
2023-04-18T15:15:53.595Z,18.04
2023-04-18T15:18:20.595Z,17.64
2023-04-18T15:20:47.615Z,17.90
2023-04-18T15:23:14.716Z,18.06
2023-04-18T15:25:42.145Z,17.74
2023-04-18T15:28:08.967Z,17.50
2023-04-18T15:30:35.643Z,17.45
2023-04-18T15:33:02.467Z,17.07
2023-04-18T15:35:29.110Z,16.92
2023-04-18T15:37:57.326Z,16.76
2023-04-18T15:40:23.854Z,16.62
2023-04-18T15:42:51.017Z,16.50
2023-04-18T15:45:17.927Z,16.48
2023-04-18T15:47:44.453Z,16.80
2023-04-18T15:50:11.186Z,17.03
2023-04-18T15:52:38.167Z,16.41
2023-04-18T15:55:05.332Z,17.14
2023-04-18T15:57:31.964Z,16.90
2023-04-18T15:59:59.661Z,17.00
2023-04-18T16:02:26.626Z,17.27
2023-04-18T16:04:53.526Z,17.14
2023-04-18T16:07:20.127Z,17.16
2023-04-18T16:09:46.668Z,17.15
2023-04-18T16:12:13.338Z,17.05
2023-04-18T16:14:39.876Z,16.70
2023-04-18T16:17:06.568Z,16.70
2023-04-18T16:19:35.049Z,16.78
2023-04-18T16:22:03.068Z,16.51
2023-04-18T16:24:30.273Z,16.52
2023-04-18T16:26:56.943Z,16.23
2023-04-18T16:29:23.828Z,16.04
2023-04-18T16:31:51.721Z,16.14
2023-04-18T16:34:18.474Z,15.83
2023-04-18T16:36:44.973Z,15.86
2023-04-18T16:39:12.130Z,16.00
2023-04-18T16:41:38.857Z,15.78
2023-04-18T16:44:05.381Z,15.52
2023-04-18T16:46:32.358Z,15.39
2023-04-18T16:48:59.260Z,15.61
2023-04-18T16:51:26.867Z,15.60
2023-04-18T16:53:53.369Z,15.79
2023-04-18T16:56:19.858Z,15.77
2023-04-18T16:58:46.757Z,15.92
2023-04-18T17:01:13.387Z,15.54
2023-04-18T17:03:40.003Z,15.58
2023-04-18T17:06:06.901Z,15.34
2023-04-18T17:08:34.147Z,15.41
2023-04-18T17:11:02.184Z,15.41
2023-04-18T17:13:31.353Z,15.05
2023-04-18T17:15:58.010Z,15.04
2023-04-18T17:18:24.749Z,14.80
2023-04-18T17:20:52.583Z,14.36
2023-04-18T17:23:19.375Z,15.14
2023-04-18T17:25:46.238Z,14.98
2023-04-18T17:28:13.836Z,15.25
2023-04-18T17:30:44.169Z,15.22
2023-04-18T17:33:10.975Z,15.03
2023-04-18T17:35:41.410Z,15.17
2023-04-18T17:38:08.939Z,15.19
2023-04-18T17:40:35.420Z,14.87
2023-04-18T17:43:01.869Z,14.90
2023-04-18T17:45:28.446Z,15.19
2023-04-18T17:47:57.097Z,15.00
2023-04-18T17:50:23.617Z,15.05
2023-04-18T17:52:50.360Z,14.80
2023-04-18T17:55:16.847Z,15.02
2023-04-18T17:57:43.332Z,14.62
2023-04-18T18:00:11.830Z,14.66
2023-04-18T18:02:38.579Z,14.56
2023-04-18T18:05:05.590Z,14.52
2023-04-18T18:07:34.813Z,14.46
2023-04-18T18:10:01.864Z,14.37
2023-04-18T18:12:28.323Z,14.40
2023-04-18T18:14:57.055Z,13.96
2023-04-18T18:17:23.760Z,14.17
2023-04-18T18:19:50.529Z,14.16
2023-04-18T18:22:17.749Z,13.82
2023-04-18T18:24:44.266Z,14.23
2023-04-18T18:27:10.858Z,14.00
2023-04-18T18:29:37.392Z,14.18
2023-04-18T18:32:03.968Z,14.20
2023-04-18T18:34:31.988Z,14.18
2023-04-18T18:36:58.667Z,14.10
2023-04-18T18:39:25.144Z,14.38
2023-04-18T18:41:52.357Z,14.35
2023-04-18T18:44:18.805Z,14.24
2023-04-18T18:46:45.434Z,13.95
2023-04-18T18:49:12.337Z,14.22
2023-04-18T18:51:39.018Z,13.98
2023-04-18T18:54:05.538Z,13.88
2023-04-18T18:56:32.161Z,14.14
2023-04-18T18:58:58.910Z,13.61
2023-04-18T19:01:25.573Z,13.67
2023-04-18T19:03:52.789Z,13.53
2023-04-18T19:06:19.426Z,13.57
2023-04-18T19:08:46.196Z,13.69
2023-04-18T19:11:12.888Z,13.58
2023-04-18T19:13:39.628Z,13.44
2023-04-18T19:16:06.280Z,13.47
2023-04-18T19:18:33.104Z,13.36
2023-04-18T19:20:59.568Z,13.20
2023-04-18T19:23:27.733Z,13.27
2023-04-18T19:25:54.696Z,12.96
2023-04-18T19:28:22.836Z,13.43
2023-04-18T19:30:49.560Z,13.38
2023-04-18T19:33:17.200Z,13.29
2023-04-18T19:35:43.759Z,13.27
2023-04-18T19:38:10.296Z,12.86
2023-04-18T19:40:37.159Z,12.97
2023-04-18T19:43:03.633Z,12.93
2023-04-18T19:45:30.660Z,12.98
2023-04-18T19:47:57.288Z,12.93
2023-04-18T19:50:23.898Z,13.15
2023-04-18T19:52:50.686Z,13.32
2023-04-18T19:55:17.316Z,12.55
2023-04-18T19:57:43.923Z,12.77
2023-04-18T20:00:12.700Z,13.23
2023-04-18T20:02:40.320Z,13.00
2023-04-18T20:05:08.492Z,13.27
2023-04-18T20:07:35.913Z,13.28
2023-04-18T20:10:02.427Z,13.07
2023-04-18T20:12:29.009Z,13.21
2023-04-18T20:14:55.879Z,13.09
2023-04-18T20:17:22.564Z,13.08
2023-04-18T20:19:49.666Z,13.16
2023-04-18T20:22:16.796Z,13.05
2023-04-18T20:24:44.998Z,13.17
2023-04-18T20:27:11.826Z,12.58
2023-04-18T20:29:38.373Z,12.98
2023-04-18T20:32:05.739Z,13.41
2023-04-18T20:34:32.568Z,13.06
2023-04-18T20:36:59.955Z,13.08
2023-04-18T20:39:27.009Z,13.37
2023-04-18T20:41:54.309Z,13.14
2023-04-18T20:44:21.816Z,13.20
2023-04-18T20:46:48.412Z,13.38
2023-04-18T20:49:15.000Z,13.32
2023-04-18T20:51:41.585Z,13.46
2023-04-18T20:54:08.227Z,13.50
2023-04-18T20:56:36.496Z,13.74
2023-04-18T20:59:04.698Z,13.88
2023-04-18T21:01:31.447Z,13.95
2023-04-18T21:03:58.319Z,13.50
2023-04-18T21:06:24.896Z,13.49
2023-04-18T21:08:51.409Z,13.73
2023-04-18T21:11:18.149Z,13.62
2023-04-18T21:13:44.689Z,13.63
2023-04-18T21:16:11.275Z,13.49
2023-04-18T21:18:37.800Z,13.64
2023-04-18T21:21:04.444Z,13.75
2023-04-18T21:23:31.017Z,13.66
2023-04-18T21:25:57.574Z,14.01
2023-04-18T21:28:24.260Z,13.75
2023-04-18T21:30:50.867Z,13.37
2023-04-18T21:33:19.206Z,13.46
2023-04-18T21:35:45.702Z,13.75
2023-04-18T21:38:12.205Z,13.64
2023-04-18T21:40:38.769Z,13.54
2023-04-18T21:43:05.347Z,13.93
2023-04-18T21:45:32.242Z,13.86
2023-04-18T21:47:58.954Z,13.81
2023-04-18T21:50:25.586Z,13.77
2023-04-18T21:52:52.407Z,13.87
2023-04-18T21:55:18.926Z,13.62
2023-04-18T21:57:45.446Z,13.55
2023-04-18T22:00:12.815Z,13.59
2023-04-18T22:02:39.607Z,13.34
2023-04-18T22:05:07.588Z,13.43
2023-04-18T22:07:43.239Z,13.75
2023-04-18T22:10:13.386Z,13.48
2023-04-18T22:12:40.207Z,13.80
2023-04-18T22:15:07.186Z,13.66
2023-04-18T22:17:34.951Z,13.84
2023-04-18T22:20:01.438Z,13.80
2023-04-18T22:22:27.908Z,14.00
2023-04-18T22:24:54.579Z,13.75
2023-04-18T22:27:21.102Z,13.98
2023-04-18T22:29:47.581Z,13.77
2023-04-18T22:32:14.215Z,13.84
2023-04-18T22:34:40.810Z,13.73
2023-04-18T22:37:07.558Z,13.64
2023-04-18T22:39:34.067Z,13.75
2023-04-18T22:42:00.969Z,14.14
2023-04-18T22:44:27.448Z,14.03
2023-04-18T22:46:56.745Z,13.84
2023-04-18T22:49:23.328Z,13.61
2023-04-18T22:51:54.167Z,14.03
2023-04-18T22:54:20.980Z,13.79
2023-04-18T22:56:49.251Z,13.51
2023-04-18T22:59:15.803Z,13.50
2023-04-18T23:01:42.492Z,13.61
2023-04-18T23:04:09.131Z,13.60
2023-04-18T23:06:36.759Z,13.97
2023-04-18T23:09:06.365Z,13.77
2023-04-18T23:11:32.865Z,13.67
2023-04-18T23:13:59.391Z,14.15
2023-04-18T23:16:25.957Z,14.25
2023-04-18T23:18:52.651Z,14.45
2023-04-18T23:21:19.187Z,14.27
2023-04-18T23:23:45.717Z,14.11
2023-04-18T23:26:16.168Z,14.43
2023-04-18T23:28:42.728Z,14.00
2023-04-18T23:31:09.848Z,14.18
2023-04-18T23:33:36.519Z,14.17
2023-04-18T23:36:03.469Z,14.22
2023-04-18T23:38:30.759Z,14.39
2023-04-18T23:40:57.251Z,14.05
2023-04-18T23:43:23.935Z,14.23
2023-04-18T23:45:50.617Z,14.30
2023-04-18T23:48:17.097Z,14.20
2023-04-18T23:50:52.202Z,14.04
2023-04-18T23:53:19.529Z,14.32
2023-04-18T23:55:47.564Z,14.51
2023-04-18T23:58:14.935Z,14.94
